Pittston Township, Pennsylvania
Current Conditions -  °F | °C
As of 7:23 PM on Wednesday 26 Nov 2014 (Local Time) from KAVP Reporting Station
Light Snow Light Snow  
Wind Chill: 24°   Ceiling: 1200
Heat Index: 33°   Visibility: 1.7mi
Dew Point: 29°   Wind: 12mph
Humidity: 85%   Direction: 310°NW
Pressure: 29.94"   Gusts: NA
Location:  41.2973°N, 75.7399°W
Report Text: KAVP 270023Z AUTO 31010KT 1 3/4SM -SN BR BKN012 OVC018 01/M02 A2994 RMK AO2 P0001 T00061017
Loading
Personal Weather Stations






























Interactive Weather Map New forecast layout! Learn more

10-Day Weather Forecast

Advertisements
Track Severe Weather on mobile